sensor_id;sensor_type;location;lat;lon;timestamp;pressure;altitude;pressure_sealevel;temperature;humidity
74544;BME280;63016;55.030;38.710;2023-02-21T00:01:33;97742.91;;;-4.82;60.32
74544;BME280;63016;55.030;38.710;2023-02-21T00:04:17;97744.50;;;-4.81;60.09
74544;BME280;63016;55.030;38.710;2023-02-21T00:07:01;97731.91;;;-4.82;60.38
74544;BME280;63016;55.030;38.710;2023-02-21T00:09:45;97726.81;;;-4.82;60.10
74544;BME280;63016;55.030;38.710;2023-02-21T00:12:29;97721.97;;;-4.85;60.15
74544;BME280;63016;55.030;38.710;2023-02-21T00:15:12;97723.59;;;-4.84;60.20
74544;BME280;63016;55.030;38.710;2023-02-21T00:17:56;97727.63;;;-4.82;60.13
74544;BME280;63016;55.030;38.710;2023-02-21T00:20:40;97709.69;;;-4.80;60.38
74544;BME280;63016;55.030;38.710;2023-02-21T00:23:25;97703.38;;;-4.86;60.24
74544;BME280;63016;55.030;38.710;2023-02-21T00:26:09;97710.75;;;-4.83;60.19
74544;BME280;63016;55.030;38.710;2023-02-21T00:28:53;97710.06;;;-4.85;60.03
74544;BME280;63016;55.030;38.710;2023-02-21T00:31:37;97706.72;;;-4.85;60.16
74544;BME280;63016;55.030;38.710;2023-02-21T00:34:21;97705.09;;;-4.86;60.00
74544;BME280;63016;55.030;38.710;2023-02-21T00:37:05;97702.78;;;-4.89;59.71
74544;BME280;63016;55.030;38.710;2023-02-21T00:39:49;97703.59;;;-4.89;60.14
74544;BME280;63016;55.030;38.710;2023-02-21T00:42:33;97696.09;;;-4.91;59.76
74544;BME280;63016;55.030;38.710;2023-02-21T00:45:16;97691.00;;;-4.91;60.00
74544;BME280;63016;55.030;38.710;2023-02-21T00:48:01;97693.78;;;-4.94;60.21
74544;BME280;63016;55.030;38.710;2023-02-21T00:50:44;97686.06;;;-4.92;59.92
74544;BME280;63016;55.030;38.710;2023-02-21T00:53:28;97689.41;;;-4.92;60.10
74544;BME280;63016;55.030;38.710;2023-02-21T00:56:12;97675.09;;;-4.93;60.32
74544;BME280;63016;55.030;38.710;2023-02-21T00:58:56;97679.91;;;-4.89;60.16
74544;BME280;63016;55.030;38.710;2023-02-21T01:01:40;97674.16;;;-4.92;60.13
74544;BME280;63016;55.030;38.710;2023-02-21T01:04:24;97675.09;;;-4.93;60.06
74544;BME280;63016;55.030;38.710;2023-02-21T01:07:08;97667.31;;;-4.91;59.82
74544;BME280;63016;55.030;38.710;2023-02-21T01:09:52;97659.94;;;-4.94;59.85
74544;BME280;63016;55.030;38.710;2023-02-21T01:12:36;97666.88;;;-4.96;59.68
74544;BME280;63016;55.030;38.710;2023-02-21T01:15:20;97660.19;;;-4.97;59.98
74544;BME280;63016;55.030;38.710;2023-02-21T01:18:04;97658.44;;;-4.97;59.98
74544;BME280;63016;55.030;38.710;2023-02-21T01:20:48;97657.66;;;-4.97;60.30
74544;BME280;63016;55.030;38.710;2023-02-21T01:23:33;97655.91;;;-4.97;60.27
74544;BME280;63016;55.030;38.710;2023-02-21T01:26:17;97652.81;;;-5.00;60.11
74544;BME280;63016;55.030;38.710;2023-02-21T01:29:01;97660.06;;;-4.96;60.22
74544;BME280;63016;55.030;38.710;2023-02-21T01:31:48;97648.28;;;-4.97;60.30
74544;BME280;63016;55.030;38.710;2023-02-21T01:34:31;97640.66;;;-4.97;60.15
74544;BME280;63016;55.030;38.710;2023-02-21T01:37:15;97640.75;;;-4.98;60.16
74544;BME280;63016;55.030;38.710;2023-02-21T01:39:59;97654.31;;;-4.98;60.24
74544;BME280;63016;55.030;38.710;2023-02-21T01:42:43;97638.72;;;-5.04;59.67
74544;BME280;63016;55.030;38.710;2023-02-21T01:48:47;97646.91;;;-5.01;59.73
74544;BME280;63016;55.030;38.710;2023-02-21T01:51:37;97632.47;;;-5.00;60.13
74544;BME280;63016;55.030;38.710;2023-02-21T01:54:22;97636.88;;;-5.02;59.77
74544;BME280;63016;55.030;38.710;2023-02-21T01:57:09;97645.16;;;-5.00;60.01
74544;BME280;63016;55.030;38.710;2023-02-21T01:59:56;97632.69;;;-5.03;59.92
74544;BME280;63016;55.030;38.710;2023-02-21T02:05:38;97639.41;;;-5.02;59.96
74544;BME280;63016;55.030;38.710;2023-02-21T02:08:27;97635.50;;;-5.06;59.89
74544;BME280;63016;55.030;38.710;2023-02-21T02:17:07;97637.09;;;-5.05;59.99
74544;BME280;63016;55.030;38.710;2023-02-21T02:25:46;97626.50;;;-5.10;59.93
74544;BME280;63016;55.030;38.710;2023-02-21T02:36:24;97618.88;;;-5.10;60.16
74544;BME280;63016;55.030;38.710;2023-02-21T02:41:45;97619.09;;;-5.13;59.28
74544;BME280;63016;55.030;38.710;2023-02-21T02:44:30;97617.63;;;-5.16;59.44
74544;BME280;63016;55.030;38.710;2023-02-21T02:47:03;97621.34;;;-5.20;59.36
74544;BME280;63016;55.030;38.710;2023-02-21T02:49:32;97611.69;;;-5.26;59.43
74544;BME280;63016;55.030;38.710;2023-02-21T02:52:05;97610.97;;;-5.28;59.45
74544;BME280;63016;55.030;38.710;2023-02-21T02:54:31;97609.88;;;-5.35;58.84
74544;BME280;63016;55.030;38.710;2023-02-21T02:56:58;97609.16;;;-5.37;58.98
74544;BME280;63016;55.030;38.710;2023-02-21T02:59:26;97598.81;;;-5.46;59.04
74544;BME280;63016;55.030;38.710;2023-02-21T03:02:08;97602.41;;;-5.48;59.07
74544;BME280;63016;55.030;38.710;2023-02-21T03:05:33;97598.38;;;-5.51;59.21
74544;BME280;63016;55.030;38.710;2023-02-21T03:10:21;97594.69;;;-5.58;58.90
74544;BME280;63016;55.030;38.710;2023-02-21T03:15:21;97589.66;;;-5.69;58.78
74544;BME280;63016;55.030;38.710;2023-02-21T03:18:05;97585.38;;;-5.69;58.75
74544;BME280;63016;55.030;38.710;2023-02-21T03:20:34;97573.75;;;-5.82;58.59
74544;BME280;63016;55.030;38.710;2023-02-21T03:23:03;97585.78;;;-5.84;58.70
74544;BME280;63016;55.030;38.710;2023-02-21T03:25:31;97585.34;;;-5.89;58.88
74544;BME280;63016;55.030;38.710;2023-02-21T03:27:59;97591.31;;;-5.90;58.97
74544;BME280;63016;55.030;38.710;2023-02-21T03:30:27;97582.13;;;-5.91;59.53
74544;BME280;63016;55.030;38.710;2023-02-21T03:32:54;97580.34;;;-5.91;59.43
74544;BME280;63016;55.030;38.710;2023-02-21T03:35:21;97580.13;;;-5.88;59.17
74544;BME280;63016;55.030;38.710;2023-02-21T03:37:51;97579.31;;;-5.88;59.57
74544;BME280;63016;55.030;38.710;2023-02-21T03:40:26;97586.69;;;-5.85;59.49
74544;BME280;63016;55.030;38.710;2023-02-21T03:42:55;97584.28;;;-5.87;59.73
74544;BME280;63016;55.030;38.710;2023-02-21T03:45:22;97584.41;;;-5.88;59.50
74544;BME280;63016;55.030;38.710;2023-02-21T03:47:47;97580.81;;;-5.86;59.54
74544;BME280;63016;55.030;38.710;2023-02-21T03:50:13;97573.31;;;-5.87;59.22
74544;BME280;63016;55.030;38.710;2023-02-21T03:52:39;97577.97;;;-5.92;58.85
74544;BME280;63016;55.030;38.710;2023-02-21T03:55:06;97577.31;;;-5.94;59.04
74544;BME280;63016;55.030;38.710;2023-02-21T03:57:31;97579.94;;;-5.96;59.23
74544;BME280;63016;55.030;38.710;2023-02-21T03:59:57;97578.47;;;-5.99;59.01
74544;BME280;63016;55.030;38.710;2023-02-21T04:02:22;97575.91;;;-5.99;58.98
74544;BME280;63016;55.030;38.710;2023-02-21T04:04:48;97569.09;;;-5.98;58.93
74544;BME280;63016;55.030;38.710;2023-02-21T04:07:15;97569.22;;;-6.00;58.84
74544;BME280;63016;55.030;38.710;2023-02-21T04:09:41;97572.13;;;-6.04;58.94
74544;BME280;63016;55.030;38.710;2023-02-21T04:12:07;97572.34;;;-6.07;58.72
74544;BME280;63016;55.030;38.710;2023-02-21T04:14:33;97578.38;;;-6.08;58.71
74544;BME280;63016;55.030;38.710;2023-02-21T04:16:58;97574.56;;;-6.14;59.14
74544;BME280;63016;55.030;38.710;2023-02-21T04:19:24;97577.78;;;-6.12;58.94
74544;BME280;63016;55.030;38.710;2023-02-21T04:21:49;97572.72;;;-6.12;58.92
74544;BME280;63016;55.030;38.710;2023-02-21T04:24:15;97569.59;;;-6.15;58.74
74544;BME280;63016;55.030;38.710;2023-02-21T04:26:40;97572.25;;;-6.17;58.82
74544;BME280;63016;55.030;38.710;2023-02-21T04:29:06;97576.75;;;-6.21;58.76
74544;BME280;63016;55.030;38.710;2023-02-21T04:31:32;97584.38;;;-6.21;59.16
74544;BME280;63016;55.030;38.710;2023-02-21T04:33:58;97573.41;;;-6.21;59.30
74544;BME280;63016;55.030;38.710;2023-02-21T04:36:24;97574.22;;;-6.21;59.04
74544;BME280;63016;55.030;38.710;2023-02-21T04:38:50;97575.16;;;-6.22;58.91
74544;BME280;63016;55.030;38.710;2023-02-21T04:41:16;97574.47;;;-6.24;58.84
74544;BME280;63016;55.030;38.710;2023-02-21T04:43:42;97562.59;;;-6.23;58.59
74544;BME280;63016;55.030;38.710;2023-02-21T04:46:08;97563.84;;;-6.29;58.60
74544;BME280;63016;55.030;38.710;2023-02-21T04:48:34;97565.81;;;-6.32;58.42
74544;BME280;63016;55.030;38.710;2023-02-21T04:50:59;97569.63;;;-6.38;58.33
74544;BME280;63016;55.030;38.710;2023-02-21T04:53:25;97578.28;;;-6.40;58.52
74544;BME280;63016;55.030;38.710;2023-02-21T04:55:50;97575.97;;;-6.43;58.63
74544;BME280;63016;55.030;38.710;2023-02-21T04:58:16;97579.41;;;-6.44;58.71
74544;BME280;63016;55.030;38.710;2023-02-21T05:00:50;97580.34;;;-6.45;59.03
74544;BME280;63016;55.030;38.710;2023-02-21T05:03:16;97577.94;;;-6.47;58.71
74544;BME280;63016;55.030;38.710;2023-02-21T05:05:42;97580.69;;;-6.50;58.67
74544;BME280;63016;55.030;38.710;2023-02-21T05:08:08;97583.25;;;-6.50;59.04
74544;BME280;63016;55.030;38.710;2023-02-21T05:10:33;97587.50;;;-6.51;58.89
74544;BME280;63016;55.030;38.710;2023-02-21T05:13:08;97586.56;;;-6.50;59.12
74544;BME280;63016;55.030;38.710;2023-02-21T05:15:33;97582.44;;;-6.51;58.99
74544;BME280;63016;55.030;38.710;2023-02-21T05:18:05;97574.16;;;-6.53;59.09
74544;BME280;63016;55.030;38.710;2023-02-21T05:20:31;97586.69;;;-6.51;58.95
74544;BME280;63016;55.030;38.710;2023-02-21T05:22:56;97586.91;;;-6.54;58.61
74544;BME280;63016;55.030;38.710;2023-02-21T05:25:22;97598.00;;;-6.55;58.94
74544;BME280;63016;55.030;38.710;2023-02-21T05:27:50;97582.91;;;-6.57;58.71
74544;BME280;63016;55.030;38.710;2023-02-21T05:30:17;97594.66;;;-6.56;58.94
74544;BME280;63016;55.030;38.710;2023-02-21T05:32:43;97586.25;;;-6.56;59.18
74544;BME280;63016;55.030;38.710;2023-02-21T05:35:10;97587.03;;;-6.56;59.15
74544;BME280;63016;55.030;38.710;2023-02-21T05:37:36;97579.44;;;-6.56;58.77
74544;BME280;63016;55.030;38.710;2023-02-21T05:40:02;97581.75;;;-6.53;58.94
74544;BME280;63016;55.030;38.710;2023-02-21T05:42:29;97575.03;;;-6.54;59.01
74544;BME280;63016;55.030;38.710;2023-02-21T05:44:55;97573.88;;;-6.50;59.11
74544;BME280;63016;55.030;38.710;2023-02-21T05:47:20;97580.34;;;-6.45;59.24
74544;BME280;63016;55.030;38.710;2023-02-21T05:49:46;97579.41;;;-6.44;58.99
74544;BME280;63016;55.030;38.710;2023-02-21T05:52:13;97579.41;;;-6.44;59.33
74544;BME280;63016;55.030;38.710;2023-02-21T05:54:39;97575.16;;;-6.44;58.98
74544;BME280;63016;55.030;38.710;2023-02-21T05:57:05;97575.88;;;-6.42;59.19
74544;BME280;63016;55.030;38.710;2023-02-21T05:59:30;97568.94;;;-6.40;59.20
74544;BME280;63016;55.030;38.710;2023-02-21T06:01:56;97574.00;;;-6.40;58.99
74544;BME280;63016;55.030;38.710;2023-02-21T06:04:31;97570.66;;;-6.40;59.09
74544;BME280;63016;55.030;38.710;2023-02-21T06:06:56;97565.47;;;-6.39;59.04
74544;BME280;63016;55.030;38.710;2023-02-21T06:09:22;97568.00;;;-6.39;59.13
74544;BME280;63016;55.030;38.710;2023-02-21T06:11:47;97570.31;;;-6.36;59.42
74544;BME280;63016;55.030;38.710;2023-02-21T06:14:19;97566.63;;;-6.32;59.32
74544;BME280;63016;55.030;38.710;2023-02-21T06:16:45;97569.03;;;-6.30;59.32
74544;BME280;63016;55.030;38.710;2023-02-21T06:19:17;97563.75;;;-6.27;59.36
74544;BME280;63016;55.030;38.710;2023-02-21T06:21:45;97561.28;;;-6.29;59.25
74544;BME280;63016;55.030;38.710;2023-02-21T06:24:11;97571.00;;;-6.23;59.52
74544;BME280;63016;55.030;38.710;2023-02-21T06:26:37;97564.88;;;-6.20;59.22
74544;BME280;63016;55.030;38.710;2023-02-21T06:29:04;97567.84;;;-6.15;59.69
74544;BME280;63016;55.030;38.710;2023-02-21T06:31:29;97568.44;;;-6.11;59.40
74544;BME280;63016;55.030;38.710;2023-02-21T06:33:55;97572.22;;;-6.06;59.55
74544;BME280;63016;55.030;38.710;2023-02-21T06:36:23;97567.94;;;-6.05;59.29
74544;BME280;63016;55.030;38.710;2023-02-21T06:38:51;97566.66;;;-6.00;59.41
74544;BME280;63016;55.030;38.710;2023-02-21T06:41:23;97566.66;;;-6.00;59.24
74544;BME280;63016;55.030;38.710;2023-02-21T06:43:53;97567.25;;;-5.96;59.63
74544;BME280;63016;55.030;38.710;2023-02-21T06:46:21;97570.34;;;-5.92;59.76
74544;BME280;63016;55.030;38.710;2023-02-21T06:48:47;97567.19;;;-5.85;59.68
74544;BME280;63016;55.030;38.710;2023-02-21T06:51:12;97570.19;;;-5.80;59.48
74544;BME280;63016;55.030;38.710;2023-02-21T06:53:42;97577.69;;;-5.78;59.55
74544;BME280;63016;55.030;38.710;2023-02-21T06:56:08;97575.94;;;-5.78;59.51
74544;BME280;63016;55.030;38.710;2023-02-21T06:58:34;97588.28;;;-5.73;59.21
74544;BME280;63016;55.030;38.710;2023-02-21T07:01:00;97578.00;;;-5.72;59.26
74544;BME280;63016;55.030;38.710;2023-02-21T07:03:25;97571.31;;;-5.73;59.63
74544;BME280;63016;55.030;38.710;2023-02-21T07:05:51;97590.34;;;-5.67;59.65
74544;BME280;63016;55.030;38.710;2023-02-21T07:08:16;97578.78;;;-5.60;60.16
74544;BME280;63016;55.030;38.710;2023-02-21T07:10:48;97583.13;;;-5.51;59.63
74544;BME280;63016;55.030;38.710;2023-02-21T07:13:13;97577.13;;;-5.50;59.63
74544;BME280;63016;55.030;38.710;2023-02-21T07:15:39;97586.66;;;-5.42;59.83
74544;BME280;63016;55.030;38.710;2023-02-21T07:18:13;97579.38;;;-5.35;59.99
74544;BME280;63016;55.030;38.710;2023-02-21T07:20:39;97582.59;;;-5.33;59.97
74544;BME280;63016;55.030;38.710;2023-02-21T07:23:04;97579.53;;;-5.27;60.20
74544;BME280;63016;55.030;38.710;2023-02-21T07:25:30;97583.34;;;-5.22;59.86
74544;BME280;63016;55.030;38.710;2023-02-21T07:27:55;97588.88;;;-5.17;59.78
74544;BME280;63016;55.030;38.710;2023-02-21T07:30:21;97580.97;;;-5.13;59.86
74544;BME280;63016;55.030;38.710;2023-02-21T07:32:46;97583.94;;;-5.08;60.24
74544;BME280;63016;55.030;38.710;2023-02-21T07:35:12;97585.31;;;-5.04;60.08
74544;BME280;63016;55.030;38.710;2023-02-21T07:37:38;97580.28;;;-4.95;59.85
74544;BME280;63016;55.030;38.710;2023-02-21T07:40:04;97585.94;;;-4.91;60.23
74544;BME280;63016;55.030;38.710;2023-02-21T07:42:33;97590.53;;;-4.85;60.11
74544;BME280;63016;55.030;38.710;2023-02-21T07:44:58;97589.19;;;-4.79;60.04
74544;BME280;63016;55.030;38.710;2023-02-21T07:47:25;97592.31;;;-4.76;59.86
74544;BME280;63016;55.030;38.710;2023-02-21T07:49:52;97585.47;;;-4.75;59.57
74544;BME280;63016;55.030;38.710;2023-02-21T07:52:19;97590.47;;;-4.74;59.73
74544;BME280;63016;55.030;38.710;2023-02-21T07:54:45;97589.53;;;-4.73;59.60
74544;BME280;63016;55.030;38.710;2023-02-21T07:57:11;97593.53;;;-4.70;59.62
74544;BME280;63016;55.030;38.710;2023-02-21T07:59:36;97591.69;;;-4.68;59.84
74544;BME280;63016;55.030;38.710;2023-02-21T08:02:02;97600.69;;;-4.64;60.12
74544;BME280;63016;55.030;38.710;2023-02-21T08:04:28;97600.84;;;-4.56;60.01
74544;BME280;63016;55.030;38.710;2023-02-21T08:07:01;97597.13;;;-4.52;59.75
74544;BME280;63016;55.030;38.710;2023-02-21T08:09:27;97590.84;;;-4.48;60.42
74544;BME280;63016;55.030;38.710;2023-02-21T08:11:52;97587.53;;;-4.38;60.56
74544;BME280;63016;55.030;38.710;2023-02-21T08:14:18;97591.84;;;-4.29;60.56
74544;BME280;63016;55.030;38.710;2023-02-21T08:16:43;97595.09;;;-4.18;60.68
74544;BME280;63016;55.030;38.710;2023-02-21T08:19:09;97586.28;;;-4.04;60.79
74544;BME280;63016;55.030;38.710;2023-02-21T08:21:35;97592.22;;;-3.94;60.93
74544;BME280;63016;55.030;38.710;2023-02-21T08:24:00;97594.38;;;-3.79;61.30
74544;BME280;63016;55.030;38.710;2023-02-21T08:26:26;97595.06;;;-3.68;60.87
74544;BME280;63016;55.030;38.710;2023-02-21T08:28:51;97598.31;;;-3.56;61.00
74544;BME280;63016;55.030;38.710;2023-02-21T08:31:17;97596.56;;;-3.46;60.83
74544;BME280;63016;55.030;38.710;2023-02-21T08:33:43;97591.63;;;-3.38;60.75
74544;BME280;63016;55.030;38.710;2023-02-21T08:36:08;97591.06;;;-3.31;61.07
74544;BME280;63016;55.030;38.710;2023-02-21T08:38:34;97593.06;;;-3.25;60.26
74544;BME280;63016;55.030;38.710;2023-02-21T08:40:59;97591.22;;;-3.23;59.89
74544;BME280;63016;55.030;38.710;2023-02-21T08:43:30;97592.66;;;-3.21;60.21
74544;BME280;63016;55.030;38.710;2023-02-21T08:45:55;97590.50;;;-3.16;60.26
74544;BME280;63016;55.030;38.710;2023-02-21T08:48:21;97594.94;;;-3.08;60.71
74544;BME280;63016;55.030;38.710;2023-02-21T08:50:49;97591.69;;;-3.00;60.92
74544;BME280;63016;55.030;38.710;2023-02-21T08:53:16;97583.91;;;-2.89;60.75
74544;BME280;63016;55.030;38.710;2023-02-21T08:55:42;97584.97;;;-2.82;61.01
74544;BME280;63016;55.030;38.710;2023-02-21T08:58:09;97588.81;;;-2.68;60.70
74544;BME280;63016;55.030;38.710;2023-02-21T09:00:35;97599.81;;;-2.58;60.96
74544;BME280;63016;55.030;38.710;2023-02-21T09:03:01;97592.13;;;-2.48;61.23
74544;BME280;63016;55.030;38.710;2023-02-21T09:05:28;97587.78;;;-2.38;61.01
74544;BME280;63016;55.030;38.710;2023-02-21T09:07:56;97585.31;;;-2.30;60.87
74544;BME280;63016;55.030;38.710;2023-02-21T09:10:27;97592.78;;;-2.19;60.68
74544;BME280;63016;55.030;38.710;2023-02-21T09:12:53;97586.63;;;-2.16;60.72
74544;BME280;63016;55.030;38.710;2023-02-21T09:15:19;97587.00;;;-2.11;61.08
74544;BME280;63016;55.030;38.710;2023-02-21T09:17:45;97590.56;;;-2.04;60.57
74544;BME280;63016;55.030;38.710;2023-02-21T09:20:17;97581.25;;;-1.95;60.61
74544;BME280;63016;55.030;38.710;2023-02-21T09:22:43;97586.88;;;-1.92;60.57
74544;BME280;63016;55.030;38.710;2023-02-21T09:25:10;97587.91;;;-1.85;61.00
74544;BME280;63016;55.030;38.710;2023-02-21T09:27:38;97588.00;;;-1.76;60.27
74544;BME280;63016;55.030;38.710;2023-02-21T09:30:14;97591.19;;;-1.74;59.83
74544;BME280;63016;55.030;38.710;2023-02-21T09:32:40;97582.47;;;-1.72;60.99
74544;BME280;63016;55.030;38.710;2023-02-21T09:35:07;97582.81;;;-1.67;60.51
74544;BME280;63016;55.030;38.710;2023-02-21T09:37:36;97584.16;;;-1.63;60.11
74544;BME280;63016;55.030;38.710;2023-02-21T09:40:02;97586.53;;;-1.61;60.31
74544;BME280;63016;55.030;38.710;2023-02-21T09:42:30;97585.97;;;-1.55;60.60
74544;BME280;63016;55.030;38.710;2023-02-21T09:44:56;97585.09;;;-1.46;60.58
74544;BME280;63016;55.030;38.710;2023-02-21T09:47:34;97588.81;;;-1.40;60.74
74544;BME280;63016;55.030;38.710;2023-02-21T09:50:10;97583.25;;;-1.36;60.50
74544;BME280;63016;55.030;38.710;2023-02-21T09:52:39;97591.69;;;-1.25;60.34
74544;BME280;63016;55.030;38.710;2023-02-21T09:55:13;97598.91;;;-1.21;59.62
74544;BME280;63016;55.030;38.710;2023-02-21T09:57:41;97592.16;;;-1.22;60.23
74544;BME280;63016;55.030;38.710;2023-02-21T10:00:33;97587.84;;;-1.21;59.73
74544;BME280;63016;55.030;38.710;2023-02-21T10:11:24;97594.94;;;-1.51;59.18
74544;BME280;63016;55.030;38.710;2023-02-21T10:14:01;97589.53;;;-1.66;58.46
74544;BME280;63016;55.030;38.710;2023-02-21T10:19:54;97591.69;;;-1.89;59.23
74544;BME280;63016;55.030;38.710;2023-02-21T10:22:27;97600.50;;;-2.01;58.68
74544;BME280;63016;55.030;38.710;2023-02-21T10:24:54;97592.91;;;-2.11;58.30
74544;BME280;63016;55.030;38.710;2023-02-21T10:27:25;97599.66;;;-2.19;58.40
74544;BME280;63016;55.030;38.710;2023-02-21T10:30:03;97593.00;;;-2.30;58.67
74544;BME280;63016;55.030;38.710;2023-02-21T10:32:30;97613.72;;;-2.43;58.70
74544;BME280;63016;55.030;38.710;2023-02-21T10:34:57;97612.56;;;-2.58;58.50
74544;BME280;63016;55.030;38.710;2023-02-21T10:37:40;97606.69;;;-2.68;58.46
74544;BME280;63016;55.030;38.710;2023-02-21T10:40:46;97610.31;;;-2.80;58.90
74544;BME280;63016;55.030;38.710;2023-02-21T10:46:12;97608.09;;;-3.03;58.65
74544;BME280;63016;55.030;38.710;2023-02-21T10:48:41;97616.56;;;-3.12;58.65
74544;BME280;63016;55.030;38.710;2023-02-21T10:53:37;97616.31;;;-3.28;58.93
74544;BME280;63016;55.030;38.710;2023-02-21T11:04:39;97626.75;;;-3.60;58.20
74544;BME280;63016;55.030;38.710;2023-02-21T11:06:44;97632.75;;;-3.71;58.07
74544;BME280;63016;55.030;38.710;2023-02-21T11:12:02;97631.63;;;-3.88;58.19
74544;BME280;63016;55.030;38.710;2023-02-21T11:14:29;97629.88;;;-3.97;58.34
74544;BME280;63016;55.030;38.710;2023-02-21T11:22:40;97640.78;;;-4.16;58.35
74544;BME280;63016;55.030;38.710;2023-02-21T11:25:31;97646.53;;;-4.24;58.58
74544;BME280;63016;55.030;38.710;2023-02-21T11:30:36;97645.13;;;-4.37;58.51
74544;BME280;63016;55.030;38.710;2023-02-21T11:33:04;97649.94;;;-4.44;58.16
74544;BME280;63016;55.030;38.710;2023-02-21T11:35:45;97652.84;;;-4.49;58.03
74544;BME280;63016;55.030;38.710;2023-02-21T11:40:57;97647.81;;;-4.60;58.60
74544;BME280;63016;55.030;38.710;2023-02-21T11:43:29;97661.91;;;-4.56;58.16
74544;BME280;63016;55.030;38.710;2023-02-21T11:51:49;97655.28;;;-4.68;58.36
74544;BME280;63016;55.030;38.710;2023-02-21T11:54:18;97669.06;;;-4.71;57.96
74544;BME280;63016;55.030;38.710;2023-02-21T12:10:46;97685.34;;;-4.94;58.35
74544;BME280;63016;55.030;38.710;2023-02-21T12:27:09;97707.09;;;-5.22;57.72
74544;BME280;63016;55.030;38.710;2023-02-21T12:38:06;97715.34;;;-5.41;57.62
74544;BME280;63016;55.030;38.710;2023-02-21T12:48:35;97744.56;;;-5.58;57.51
74544;BME280;63016;55.030;38.710;2023-02-21T12:51:07;97754.97;;;-5.61;57.48
74544;BME280;63016;55.030;38.710;2023-02-21T12:56:06;97767.78;;;-5.62;57.62
74544;BME280;63016;55.030;38.710;2023-02-21T12:58:52;97767.56;;;-5.71;57.90
74544;BME280;63016;55.030;38.710;2023-02-21T13:01:24;97775.41;;;-5.74;57.94
74544;BME280;63016;55.030;38.710;2023-02-21T13:09:42;97779.78;;;-5.76;57.67
74544;BME280;63016;55.030;38.710;2023-02-21T13:12:35;97785.91;;;-5.78;58.14
74544;BME280;63016;55.030;38.710;2023-02-21T13:17:34;97791.94;;;-5.79;58.44
74544;BME280;63016;55.030;38.710;2023-02-21T13:20:11;97794.34;;;-5.78;57.62
74544;BME280;63016;55.030;38.710;2023-02-21T13:28:58;97797.94;;;-5.91;57.59
74544;BME280;63016;55.030;38.710;2023-02-21T13:31:32;97804.06;;;-5.94;57.53
74544;BME280;63016;55.030;38.710;2023-02-21T13:34:06;97804.50;;;-6.00;57.29
74544;BME280;63016;55.030;38.710;2023-02-21T13:41:40;97820.84;;;-6.15;56.99
74544;BME280;63016;55.030;38.710;2023-02-21T13:44:11;97816.34;;;-6.23;57.08
74544;BME280;63016;55.030;38.710;2023-02-21T14:10:49;97859.59;;;-6.73;57.42
74544;BME280;63016;55.030;38.710;2023-02-21T14:21:42;97867.91;;;-6.94;57.20
74544;BME280;63016;55.030;38.710;2023-02-21T14:29:14;97892.66;;;-7.11;56.65
74544;BME280;63016;55.030;38.710;2023-02-21T14:32:14;97894.72;;;-7.16;57.06
74544;BME280;63016;55.030;38.710;2023-02-21T14:48:54;97929.69;;;-7.46;56.42
74544;BME280;63016;55.030;38.710;2023-02-21T14:54:49;97944.06;;;-7.60;56.92
74544;BME280;63016;55.030;38.710;2023-02-21T15:03:21;97959.44;;;-7.76;57.08
74544;BME280;63016;55.030;38.710;2023-02-21T15:06:08;97964.63;;;-7.77;57.00
74544;BME280;63016;55.030;38.710;2023-02-21T15:08:43;97961.47;;;-7.81;56.93
74544;BME280;63016;55.030;38.710;2023-02-21T15:11:25;97974.31;;;-7.84;57.36
74544;BME280;63016;55.030;38.710;2023-02-21T15:14:31;97979.06;;;-7.92;56.94
74544;BME280;63016;55.030;38.710;2023-02-21T15:17:10;97980.16;;;-7.96;56.44
74544;BME280;63016;55.030;38.710;2023-02-21T15:19:37;97983.91;;;-8.02;56.79
74544;BME280;63016;55.030;38.710;2023-02-21T15:22:20;97990.06;;;-8.06;57.34
74544;BME280;63016;55.030;38.710;2023-02-21T15:27:36;97993.78;;;-8.11;57.37
74544;BME280;63016;55.030;38.710;2023-02-21T15:30:16;98004.09;;;-8.14;56.99
74544;BME280;63016;55.030;38.710;2023-02-21T15:32:55;98010.22;;;-8.18;57.47
74544;BME280;63016;55.030;38.710;2023-02-21T15:35:25;98016.31;;;-8.21;56.60
74544;BME280;63016;55.030;38.710;2023-02-21T15:37:51;98013.25;;;-8.26;56.82
74544;BME280;63016;55.030;38.710;2023-02-21T15:40:22;98028.59;;;-8.29;56.73
74544;BME280;63016;55.030;38.710;2023-02-21T15:42:49;98020.59;;;-8.36;57.15
74544;BME280;63016;55.030;38.710;2023-02-21T15:45:24;98027.41;;;-8.36;56.83
74544;BME280;63016;55.030;38.710;2023-02-21T15:47:51;98033.63;;;-8.42;56.59
74544;BME280;63016;55.030;38.710;2023-02-21T15:50:31;98041.31;;;-8.43;56.24
74544;BME280;63016;55.030;38.710;2023-02-21T15:53:11;98044.38;;;-8.52;56.47
74544;BME280;63016;55.030;38.710;2023-02-21T15:55:37;98046.47;;;-8.59;56.41
74544;BME280;63016;55.030;38.710;2023-02-21T16:00:34;98054.69;;;-8.70;56.19
74544;BME280;63016;55.030;38.710;2023-02-21T16:03:29;98057.56;;;-8.76;56.47
74544;BME280;63016;55.030;38.710;2023-02-21T16:06:21;98063.09;;;-8.84;56.02
74544;BME280;63016;55.030;38.710;2023-02-21T16:11:24;98070.41;;;-8.93;56.36
74544;BME280;63016;55.030;38.710;2023-02-21T16:13:51;98073.25;;;-8.99;56.44
74544;BME280;63016;55.030;38.710;2023-02-21T16:16:17;98079.31;;;-9.02;56.07
74544;BME280;63016;55.030;38.710;2023-02-21T16:18:42;98088.78;;;-9.06;56.35
74544;BME280;63016;55.030;38.710;2023-02-21T16:21:26;98079.19;;;-9.15;56.48
74544;BME280;63016;55.030;38.710;2023-02-21T16:23:52;98090.19;;;-9.16;56.13
74544;BME280;63016;55.030;38.710;2023-02-21T16:26:22;98092.88;;;-9.19;56.52
74544;BME280;63016;55.030;38.710;2023-02-21T16:28:53;98100.56;;;-9.20;56.18
74544;BME280;63016;55.030;38.710;2023-02-21T16:31:38;98098.28;;;-9.25;56.24
74544;BME280;63016;55.030;38.710;2023-02-21T16:34:10;98109.19;;;-9.24;56.65
74544;BME280;63016;55.030;38.710;2023-02-21T16:36:37;98123.91;;;-9.31;56.12
74544;BME280;63016;55.030;38.710;2023-02-21T16:39:05;98112.97;;;-9.32;55.93
74544;BME280;63016;55.030;38.710;2023-02-21T16:41:30;98113.34;;;-9.38;56.42
74544;BME280;63016;55.030;38.710;2023-02-21T16:43:56;98113.22;;;-9.36;55.93
74544;BME280;63016;55.030;38.710;2023-02-21T16:46:26;98114.19;;;-9.39;55.82
74544;BME280;63016;55.030;38.710;2023-02-21T16:48:53;98121.22;;;-9.44;56.37